Huvudsida
METAR-TAF:

METAR-TAF

Flygplatser :

Toulouse, Frankrike

latitud: 43-38N, longitud: 001-22E, höjd: 152 m

Aktuellt väderrapport

Denna rapport gjordes för 43 minuter sedan, klockan 11:00 UTC
Vind 4 kt varierande vindriktning
Temperatur 26°C
Fuktighet 54%
Tryck 1019 hPa
Sikt 10 km eller mer
Inga moln under 1 500 m eller inga cumulonimbus

METAR: LFBO 161100Z AUTO VRB04KT CAVOK 26/16 Q1019 NOSIG

Tid: 13:43 (11:43 UTC)

Väderprognos

Denna rapport gjordes för 6 timmar och 43 minuter sedan, klockan 05:00 UTC
Prognos gäller från 16 kl. 06 UTC till 17 kl. 12 UTC
Vind 5 kt från syd/sydost
Sikt 10 km eller mer
Inga moln under 1 500 m eller inga cumulonimbus

TAF: LFBO 160500Z 1606/1712 16005KT CAVOK

Aktuella väderrapporter och prognoser från 4000 flygplatser (METAR- och TAF-rapporter).

De tillgängliga stationerna syns som gula och röda prickar på kartan.

För musen över prickarna för att se namnen på stationerna.

Klicka sedan för att få väderrapporter och prognoser.

För att ändra kartan: Klicka på de gröna knapparna med ett svart kors på för att zooma in; den gröna knappen med ett streck på för att zooma ut; eller på de gröna pilarna för angränsande kartor.


METAR-TAF: